Time;durP1;ratioP1;P1;durP2;ratioP2;P2;SDS_P1;SDS_P2;PMS_P1;PMS_P2;Temp;Humidity;BMP_temperature;BMP_pressure;BME280_temperature;BME280_humidity;BME280_pressure;Samples;Min_cycle;Max_cycle;Signal;HPM_P1;HPM_P2
2023/02/02 00:00:55;;;;;;;18.77;3.50;;;6.20;99.90;;;;;;4994386;28;20022;-71
2023/02/02 00:03:20;;;;;;;31.60;4.65;;;6.20;99.90;;;;;;5004926;28;20046;-72
2023/02/02 00:05:51;;;;;;;25.25;3.65;;;6.20;99.90;;;;;;5000013;28;20052;-70
2023/02/02 00:08:18;;;;;;;33.40;4.97;;;6.20;99.90;;;;;;4994027;28;20041;-72
2023/02/02 00:10:45;;;;;;;29.05;3.67;;;6.10;99.90;;;;;;5004513;28;20128;-72
2023/02/02 00:13:11;;;;;;;47.30;4.80;;;6.10;99.90;;;;;;5004869;28;20502;-72
2023/02/02 00:15:37;;;;;;;24.77;4.10;;;6.10;99.90;;;;;;5004995;28;20082;-74
2023/02/02 00:18:03;;;;;;;30.90;4.85;;;6.10;99.90;;;;;;5003727;28;20093;-75
2023/02/02 00:20:29;;;;;;;29.98;4.85;;;6.10;99.90;;;;;;5003505;28;20037;-74
2023/02/02 00:22:55;;;;;;;24.60;3.92;;;6.10;99.90;;;;;;4995590;28;20122;-73
2023/02/02 00:25:21;;;;;;;28.80;4.00;;;6.10;99.90;;;;;;4985357;28;20130;-73
2023/02/02 00:27:47;;;;;;;27.10;3.83;;;6.10;99.90;;;;;;5019357;28;20023;-75
2023/02/02 00:30:13;;;;;;;27.30;3.75;;;6.00;99.90;;;;;;5004107;28;20030;-72
2023/02/02 00:32:39;;;;;;;29.70;3.83;;;6.00;99.90;;;;;;5003330;28;20073;-76
2023/02/02 00:35:06;;;;;;;37.58;5.03;;;6.00;99.90;;;;;;5003198;28;20038;-76
2023/02/02 00:37:31;;;;;;;31.77;4.45;;;6.00;99.90;;;;;;4989544;28;20030;-72
2023/02/02 00:39:57;;;;;;;30.55;4.03;;;6.00;99.90;;;;;;4984849;28;20035;-72
2023/02/02 00:42:22;;;;;;;33.58;4.20;;;6.00;99.90;;;;;;4983463;28;20114;-74
2023/02/02 00:47:32;;;;;;;31.13;3.75;;;6.00;99.90;;;;;;4985490;28;20089;-74
2023/02/02 00:49:58;;;;;;;31.85;4.55;;;6.00;99.90;;;;;;4984714;28;20035;-75
2023/02/02 00:52:23;;;;;;;26.55;4.50;;;5.90;99.90;;;;;;4983292;28;20034;-75
2023/02/02 00:54:49;;;;;;;29.08;4.53;;;6.00;99.90;;;;;;4984732;28;20070;-72
2023/02/02 00:57:15;;;;;;;31.42;4.70;;;6.00;99.90;;;;;;4984479;28;20059;-72
2023/02/02 00:59:41;;;;;;;27.08;4.32;;;6.00;99.90;;;;;;4997350;28;20037;-73
2023/02/02 01:02:09;;;;;;;32.03;4.40;;;6.00;99.90;;;;;;5003008;28;20027;-75
2023/02/02 01:04:35;;;;;;;30.65;3.85;;;6.00;99.90;;;;;;5004059;28;20030;-70
2023/02/02 01:07:01;;;;;;;39.70;4.72;;;6.00;99.90;;;;;;5002914;28;20125;-72
2023/02/02 01:09:26;;;;;;;23.42;3.97;;;6.00;99.90;;;;;;5003777;28;20034;-74
2023/02/02 01:11:52;;;;;;;30.63;4.15;;;6.00;99.90;;;;;;4991017;28;20035;-73
2023/02/02 01:14:17;;;;;;;29.58;3.25;;;6.00;99.90;;;;;;4983659;28;20476;-73
2023/02/02 01:16:43;;;;;;;26.25;3.97;;;5.90;99.90;;;;;;4983924;28;20073;-73
2023/02/02 01:19:11;;;;;;;25.73;4.05;;;6.00;99.90;;;;;;4984545;28;20105;-73
2023/02/02 01:21:36;;;;;;;23.77;3.75;;;6.00;99.90;;;;;;4984290;28;20046;-72
2023/02/02 01:24:02;;;;;;;32.13;3.70;;;6.00;99.90;;;;;;4984730;28;20050;-73
2023/02/02 01:26:27;;;;;;;26.38;3.75;;;6.00;99.90;;;;;;4982930;28;20070;-75
2023/02/02 01:28:53;;;;;;;18.73;3.50;;;6.00;99.90;;;;;;4984273;28;20058;-75
2023/02/02 01:31:19;;;;;;;30.67;4.57;;;6.00;99.90;;;;;;4982967;28;20027;-71
2023/02/02 01:33:46;;;;;;;32.22;4.28;;;5.90;99.90;;;;;;4984253;28;20034;-71
2023/02/02 01:36:15;;;;;;;36.33;4.40;;;5.90;99.90;;;;;;4984166;28;20035;-70
2023/02/02 01:38:41;;;;;;;28.25;3.72;;;6.00;99.90;;;;;;4982936;28;20031;-73
2023/02/02 01:41:10;;;;;;;30.08;4.10;;;5.90;99.90;;;;;;4985475;28;20066;-75
2023/02/02 01:43:42;;;;;;;31.00;4.20;;;5.90;99.90;;;;;;4986903;28;20027;-74
2023/02/02 01:46:20;;;;;;;29.52;3.88;;;5.90;99.90;;;;;;4987097;28;20034;-78
2023/02/02 01:48:54;;;;;;;28.20;4.38;;;5.90;99.90;;;;;;4987996;28;20026;-72
2023/02/02 01:51:26;;;;;;;26.33;4.22;;;5.80;99.90;;;;;;4988237;28;20027;-74
2023/02/02 01:53:55;;;;;;;21.33;3.78;;;5.90;99.90;;;;;;4988372;28;20050;-71
2023/02/02 01:56:32;;;;;;;29.63;3.92;;;5.80;99.90;;;;;;4987821;28;20054;-72
2023/02/02 01:58:59;;;;;;;31.77;4.32;;;5.80;99.90;;;;;;4987868;28;20039;-74
2023/02/02 02:01:26;;;;;;;28.58;4.85;;;5.70;99.90;;;;;;4987750;28;20058;-72
2023/02/02 02:03:52;;;;;;;29.75;4.32;;;5.70;99.90;;;;;;4986611;28;20027;-73
2023/02/02 02:06:18;;;;;;;20.88;3.15;;;5.70;99.90;;;;;;4987935;28;20046;-72
2023/02/02 02:09:04;;;;;;;33.38;4.72;;;5.60;99.90;;;;;;4987508;28;20037;-72
2023/02/02 02:11:32;;;;;;;26.45;4.00;;;5.60;99.90;;;;;;4987515;28;21033;-72
2023/02/02 02:17:07;;;;;;;31.60;4.13;;;5.60;99.90;;;;;;4987535;28;20038;-70
2023/02/02 02:29:04;;;;;;;22.05;3.88;;;5.50;99.90;;;;;;4995664;28;20057;-74
2023/02/02 02:31:32;;;;;;;36.58;4.65;;;5.60;99.90;;;;;;4996755;28;20026;-72
2023/02/02 02:34:03;;;;;;;38.63;4.97;;;5.60;99.90;;;;;;4997965;28;20034;-72
2023/02/02 02:36:55;;;;;;;32.33;4.10;;;5.60;99.90;;;;;;4998542;28;20030;-74
2023/02/02 02:39:33;;;;;;;28.98;4.72;;;5.60;99.90;;;;;;4994947;28;20034;-72
2023/02/02 02:42:07;;;;;;;40.13;4.65;;;5.60;99.90;;;;;;4993692;28;20027;-71
2023/02/02 02:44:35;;;;;;;39.67;5.03;;;5.70;99.90;;;;;;4997788;28;20027;-74
2023/02/02 02:47:01;;;;;;;30.08;3.63;;;5.70;99.90;;;;;;4998107;28;20098;-72
2023/02/02 02:49:27;;;;;;;24.05;3.60;;;5.60;99.90;;;;;;4993991;28;20030;-71
2023/02/02 02:51:54;;;;;;;30.73;3.83;;;5.70;99.90;;;;;;4991962;28;20158;-71
2023/02/02 02:54:33;;;;;;;31.45;3.80;;;5.70;99.90;;;;;;4995533;28;20052;-72
2023/02/02 02:57:12;;;;;;;19.92;3.08;;;5.70;99.90;;;;;;4994389;28;20054;-71
2023/02/02 03:00:04;;;;;;;23.33;4.05;;;5.70;99.90;;;;;;4990849;28;20056;-73
2023/02/02 03:02:48;;;;;;;24.83;3.72;;;5.60;99.90;;;;;;4996387;28;20109;-72
2023/02/02 03:05:42;;;;;;;26.83;3.72;;;5.60;99.90;;;;;;4996057;28;20030;-72
2023/02/02 03:08:39;;;;;;;28.08;3.10;;;5.70;99.90;;;;;;4999323;28;20134;-71
2023/02/02 03:11:07;;;;;;;39.20;3.78;;;5.70;99.90;;;;;;4996761;28;20043;-73
2023/02/02 03:13:33;;;;;;;22.70;2.88;;;5.70;99.90;;;;;;4993828;28;20042;-72
2023/02/02 03:15:59;;;;;;;24.00;3.08;;;5.70;99.90;;;;;;4995248;28;20471;-71
2023/02/02 03:18:29;;;;;;;33.10;4.53;;;5.50;99.90;;;;;;4998561;28;20030;-71
2023/02/02 03:20:55;;;;;;;21.38;2.72;;;5.50;99.90;;;;;;4996376;28;20062;-74
2023/02/02 03:23:20;;;;;;;21.48;3.03;;;5.50;99.90;;;;;;4994780;28;20473;-74
2023/02/02 03:25:46;;;;;;;26.08;3.75;;;5.50;99.90;;;;;;4995022;28;20034;-73
2023/02/02 03:28:12;;;;;;;35.55;3.58;;;5.50;99.90;;;;;;4994790;28;20030;-72
2023/02/02 03:30:40;;;;;;;29.88;3.90;;;5.40;99.90;;;;;;4998373;28;20023;-71
2023/02/02 03:33:06;;;;;;;25.08;3.80;;;5.40;99.90;;;;;;4992691;28;20086;-72
2023/02/02 03:35:32;;;;;;;26.88;4.10;;;5.50;99.90;;;;;;4995492;28;20049;-72
2023/02/02 03:37:58;;;;;;;25.88;3.70;;;5.50;99.90;;;;;;4993651;28;20872;-73
2023/02/02 03:40:23;;;;;;;25.05;3.55;;;5.40;99.90;;;;;;4994386;28;20030;-72
2023/02/02 03:42:49;;;;;;;42.88;3.97;;;5.30;99.90;;;;;;4997942;28;20038;-73
2023/02/02 03:45:15;;;;;;;39.47;4.57;;;5.40;99.90;;;;;;4995183;28;20102;-70
2023/02/02 03:47:40;;;;;;;24.13;3.70;;;5.30;99.90;;;;;;4994107;28;20034;-72
2023/02/02 03:50:07;;;;;;;24.95;3.53;;;5.30;99.90;;;;;;4993557;28;20041;-71
2023/02/02 03:52:32;;;;;;;32.05;4.25;;;5.30;99.90;;;;;;4991030;28;20042;-72
2023/02/02 03:54:58;;;;;;;33.85;3.75;;;5.30;99.90;;;;;;4999740;28;20076;-71
2023/02/02 03:57:24;;;;;;;26.00;3.42;;;5.20;99.90;;;;;;5003422;28;20503;-73
2023/02/02 03:59:49;;;;;;;31.73;4.63;;;5.20;99.90;;;;;;5004511;28;20031;-72
2023/02/02 04:02:15;;;;;;;29.77;3.40;;;5.10;99.90;;;;;;5003557;28;20037;-71
2023/02/02 04:04:41;;;;;;;25.20;3.88;;;5.10;99.90;;;;;;5003009;28;20070;-74
2023/02/02 04:07:07;;;;;;;32.85;4.25;;;5.10;99.90;;;;;;5005124;28;20027;-73
2023/02/02 04:09:33;;;;;;;30.48;4.25;;;5.10;99.90;;;;;;5004632;28;20037;-72
2023/02/02 04:11:58;;;;;;;34.00;4.22;;;5.10;99.90;;;;;;5004963;28;20065;-69
2023/02/02 04:14:24;;;;;;;27.50;4.32;;;5.10;99.90;;;;;;5004717;28;20031;-70
2023/02/02 04:16:49;;;;;;;28.77;3.80;;;5.10;99.90;;;;;;5004380;28;20035;-73
2023/02/02 04:19:15;;;;;;;34.53;4.28;;;5.00;99.90;;;;;;5004595;28;20031;-73
2023/02/02 04:21:41;;;;;;;34.80;4.15;;;5.00;99.90;;;;;;5004718;28;20037;-71
2023/02/02 04:24:11;;;;;;;36.38;5.32;;;5.10;99.90;;;;;;5004354;28;20026;-71
2023/02/02 04:26:36;;;;;;;37.70;4.82;;;5.00;99.90;;;;;;5003227;28;20042;-71
2023/02/02 04:29:02;;;;;;;34.00;4.30;;;5.00;99.90;;;;;;5004425;28;20105;-73
2023/02/02 04:31:28;;;;;;;29.98;3.47;;;4.90;99.90;;;;;;5004583;28;20030;-73
2023/02/02 04:33:54;;;;;;;27.75;3.88;;;5.00;99.90;;;;;;5004298;28;20026;-73
2023/02/02 04:36:20;;;;;;;34.47;5.10;;;4.90;99.90;;;;;;5004167;28;20064;-71
2023/02/02 04:38:49;;;;;;;41.50;4.97;;;5.00;99.90;;;;;;5004461;28;20026;-74
2023/02/02 04:41:14;;;;;;;34.58;4.32;;;5.00;99.90;;;;;;5004184;28;20068;-71
2023/02/02 04:43:40;;;;;;;26.92;3.90;;;5.00;99.90;;;;;;5004214;28;20041;-72
2023/02/02 04:46:06;;;;;;;32.88;4.00;;;5.10;99.90;;;;;;5004388;28;20507;-71
2023/02/02 04:48:31;;;;;;;34.13;3.92;;;5.10;99.90;;;;;;5004683;28;20034;-72
2023/02/02 04:50:59;;;;;;;20.25;3.65;;;5.10;99.90;;;;;;5003895;28;20034;-71
2023/02/02 04:53:25;;;;;;;33.65;4.15;;;5.10;99.90;;;;;;5002998;28;20053;-73
2023/02/02 04:55:50;;;;;;;36.00;4.20;;;5.10;99.90;;;;;;5002007;28;20035;-73
2023/02/02 04:58:16;;;;;;;30.30;4.10;;;5.10;99.90;;;;;;5002544;28;20033;-73
2023/02/02 05:00:41;;;;;;;32.85;4.32;;;5.10;99.90;;;;;;5003927;28;20026;-73
2023/02/02 05:03:07;;;;;;;33.25;4.05;;;5.10;99.90;;;;;;5004244;28;20023;-73
2023/02/02 05:05:32;;;;;;;29.20;4.35;;;5.10;99.90;;;;;;5003926;28;20097;-72
2023/02/02 05:07:58;;;;;;;31.13;4.05;;;5.00;99.90;;;;;;5002706;28;20105;-72
2023/02/02 05:10:24;;;;;;;22.30;4.30;;;5.00;99.90;;;;;;5001474;28;20452;-72
2023/02/02 05:12:52;;;;;;;38.47;4.07;;;5.00;99.90;;;;;;5002111;28;20058;-74
2023/02/02 05:15:18;;;;;;;34.20;3.92;;;5.00;99.90;;;;;;5001756;28;20037;-72
2023/02/02 05:17:43;;;;;;;33.67;4.35;;;5.00;99.90;;;;;;5003662;28;20110;-72
2023/02/02 05:20:09;;;;;;;44.60;5.35;;;5.00;99.90;;;;;;5004134;28;20033;-73
2023/02/02 05:22:35;;;;;;;20.88;3.13;;;5.00;99.90;;;;;;5002516;28;20029;-73
2023/02/02 05:25:01;;;;;;;31.08;3.67;;;5.10;99.90;;;;;;5003554;28;20038;-74
2023/02/02 05:27:26;;;;;;;29.60;4.18;;;4.90;99.90;;;;;;5003677;28;20091;-74
2023/02/02 05:29:52;;;;;;;24.52;3.85;;;4.90;99.90;;;;;;5003831;28;20026;-75
2023/02/02 05:32:17;;;;;;;37.70;4.47;;;4.90;99.90;;;;;;5002230;28;20065;-72
2023/02/02 05:34:43;;;;;;;30.88;4.05;;;4.90;99.90;;;;;;5003881;28;20042;-72
2023/02/02 05:37:09;;;;;;;35.38;3.80;;;4.90;99.90;;;;;;5003908;28;20025;-72
2023/02/02 05:39:34;;;;;;;35.75;3.72;;;4.90;99.90;;;;;;5003797;28;20109;-73
2023/02/02 05:42:00;;;;;;;23.48;4.45;;;4.90;99.90;;;;;;5003462;28;20034;-71
2023/02/02 05:44:25;;;;;;;26.40;4.32;;;4.90;99.90;;;;;;5003274;28;20035;-72
2023/02/02 05:46:51;;;;;;;31.05;4.72;;;4.80;99.90;;;;;;5003437;28;20113;-71
2023/02/02 05:49:16;;;;;;;34.92;4.47;;;4.80;99.90;;;;;;5003651;28;20031;-71
2023/02/02 05:51:53;;;;;;;23.00;3.30;;;4.90;99.90;;;;;;5002110;28;20022;-72
2023/02/02 05:54:19;;;;;;;35.42;3.80;;;4.80;99.90;;;;;;5003427;28;20022;-72
2023/02/02 05:56:50;;;;;;;27.77;3.78;;;4.80;99.90;;;;;;5002984;28;20570;-74
2023/02/02 05:59:17;;;;;;;28.10;4.68;;;4.80;99.90;;;;;;5002109;28;20026;-72
2023/02/02 06:01:43;;;;;;;40.05;3.97;;;4.80;99.90;;;;;;5002772;28;20027;-72
2023/02/02 06:04:09;;;;;;;37.67;4.15;;;4.80;99.90;;;;;;5000148;28;20513;-73
2023/02/02 06:06:36;;;;;;;26.17;3.88;;;4.80;99.90;;;;;;5001883;28;20085;-73
2023/02/02 06:09:03;;;;;;;31.88;4.05;;;4.80;99.90;;;;;;5001514;28;20065;-74
2023/02/02 06:11:29;;;;;;;27.17;4.00;;;4.70;99.90;;;;;;5001989;28;20041;-74
2023/02/02 06:13:55;;;;;;;29.10;4.65;;;4.80;99.90;;;;;;5001946;28;20038;-77
2023/02/02 06:16:20;;;;;;;24.70;4.10;;;4.80;99.90;;;;;;5001414;28;20088;-73
2023/02/02 06:18:47;;;;;;;35.72;4.53;;;4.80;99.90;;;;;;5001339;28;20149;-72
2023/02/02 06:21:13;;;;;;;29.10;4.35;;;4.70;99.90;;;;;;5001508;28;20090;-73
2023/02/02 06:23:44;;;;;;;44.13;4.53;;;4.80;99.90;;;;;;5001505;28;20096;-73
2023/02/02 06:26:16;;;;;;;30.15;3.80;;;4.70;99.90;;;;;;5001592;28;20031;-74
2023/02/02 06:28:46;;;;;;;28.13;4.18;;;4.70;99.90;;;;;;5004783;28;20396;-72
2023/02/02 06:31:12;;;;;;;35.90;4.47;;;4.80;99.90;;;;;;5004313;28;20053;-73
2023/02/02 06:33:38;;;;;;;36.42;4.40;;;4.80;99.90;;;;;;5005053;28;20031;-75
2023/02/02 06:36:05;;;;;;;27.98;3.78;;;4.80;99.90;;;;;;5003714;28;20420;-72
2023/02/02 06:38:31;;;;;;;36.65;3.92;;;4.80;99.90;;;;;;5004660;28;20068;-70
2023/02/02 06:41:00;;;;;;;38.78;4.60;;;4.80;99.90;;;;;;5003962;28;20208;-73
2023/02/02 06:43:27;;;;;;;26.45;4.10;;;4.80;99.90;;;;;;5002769;28;20034;-73
2023/02/02 06:45:52;;;;;;;25.95;4.70;;;4.70;99.90;;;;;;5004083;28;20038;-71
2023/02/02 06:48:18;;;;;;;31.63;3.80;;;4.70;99.90;;;;;;5005154;28;20027;-75
2023/02/02 06:50:43;;;;;;;40.58;4.95;;;4.70;99.90;;;;;;5005538;28;20038;-73
2023/02/02 06:53:09;;;;;;;40.25;4.13;;;4.70;99.90;;;;;;5006086;28;20034;-73
2023/02/02 06:55:34;;;;;;;38.03;4.80;;;4.80;99.90;;;;;;5005100;28;20037;-72
2023/02/02 06:58:01;;;;;;;34.83;4.40;;;4.70;99.90;;;;;;5005204;28;20184;-72
2023/02/02 07:00:28;;;;;;;35.10;4.57;;;4.60;99.90;;;;;;5003965;28;20042;-71
2023/02/02 07:02:54;;;;;;;36.78;3.95;;;4.60;99.90;;;;;;5005256;28;20031;-72
2023/02/02 07:05:22;;;;;;;33.55;4.47;;;4.60;99.90;;;;;;5005303;28;20109;-72
2023/02/02 07:07:48;;;;;;;36.47;4.50;;;4.60;99.90;;;;;;5003882;28;20477;-72
2023/02/02 07:10:14;;;;;;;38.42;4.43;;;4.60;99.90;;;;;;5003796;28;20459;-71
2023/02/02 07:12:40;;;;;;;32.05;4.07;;;4.60;99.90;;;;;;5005133;28;20026;-72
2023/02/02 07:15:06;;;;;;;34.28;4.53;;;4.60;99.90;;;;;;5003612;28;20161;-73
2023/02/02 07:17:32;;;;;;;41.90;5.72;;;4.60;99.90;;;;;;5004801;28;20574;-72
2023/02/02 07:19:57;;;;;;;38.67;5.40;;;4.60;99.90;;;;;;5004894;28;20027;-71
2023/02/02 07:22:23;;;;;;;44.03;4.90;;;4.60;99.90;;;;;;5004703;28;20046;-73
2023/02/02 07:24:49;;;;;;;33.25;4.35;;;4.60;99.90;;;;;;5004764;28;20425;-73
2023/02/02 07:27:14;;;;;;;33.78;4.10;;;4.60;99.90;;;;;;5005808;28;20039;-71
2023/02/02 07:29:40;;;;;;;47.53;4.72;;;4.50;99.90;;;;;;5005404;28;20041;-71
2023/02/02 07:32:05;;;;;;;31.13;4.72;;;4.50;99.90;;;;;;5005587;28;20417;-73
2023/02/02 07:34:31;;;;;;;36.28;4.90;;;4.50;99.90;;;;;;5004647;28;20033;-71
2023/02/02 07:36:57;;;;;;;35.05;4.88;;;4.60;99.90;;;;;;5004196;28;20026;-71
2023/02/02 07:39:22;;;;;;;47.03;5.18;;;4.60;99.90;;;;;;5002979;28;20029;-71
2023/02/02 07:41:48;;;;;;;41.45;5.30;;;4.60;99.90;;;;;;5005093;28;20019;-70
2023/02/02 07:44:15;;;;;;;35.97;4.93;;;4.60;99.90;;;;;;5003712;28;20030;-70
2023/02/02 07:46:42;;;;;;;34.22;4.55;;;4.70;99.90;;;;;;5005063;28;20041;-72
2023/02/02 07:49:12;;;;;;;38.85;4.82;;;4.70;99.90;;;;;;5005666;28;20037;-73
2023/02/02 07:51:37;;;;;;;42.67;4.85;;;4.60;99.90;;;;;;5005378;28;20037;-72
2023/02/02 07:54:03;;;;;;;32.88;4.95;;;4.70;99.90;;;;;;5003337;28;20026;-72
2023/02/02 07:56:28;;;;;;;38.85;4.53;;;4.70;99.90;;;;;;5003658;28;20050;-73
2023/02/02 07:58:55;;;;;;;26.42;4.03;;;4.70;99.90;;;;;;5004795;28;20034;-74
2023/02/02 08:01:22;;;;;;;30.83;4.80;;;4.70;99.90;;;;;;5002411;28;20019;-72
2023/02/02 08:03:49;;;;;;;37.45;4.90;;;4.80;99.90;;;;;;4999628;28;20631;-72
2023/02/02 08:06:36;;;;;;;37.60;4.65;;;4.80;99.90;;;;;;4996902;28;20081;-71
2023/02/02 08:09:06;;;;;;;28.77;4.65;;;4.90;99.90;;;;;;5003078;28;20049;-72
2023/02/02 08:11:32;;;;;;;30.13;4.80;;;5.00;99.90;;;;;;5004254;28;20018;-73
2023/02/02 08:14:00;;;;;;;41.55;4.00;;;4.90;99.90;;;;;;4997346;28;20039;-71
2023/02/02 08:16:27;;;;;;;31.67;3.72;;;5.00;99.90;;;;;;5003906;28;20035;-71
2023/02/02 08:18:53;;;;;;;24.48;4.90;;;5.10;99.90;;;;;;5002443;28;20534;-73
2023/02/02 08:21:19;;;;;;;30.05;4.30;;;5.30;99.90;;;;;;5002699;28;20030;-71
2023/02/02 08:23:45;;;;;;;30.45;4.18;;;5.50;99.90;;;;;;5004895;28;20120;-70
2023/02/02 08:26:14;;;;;;;36.78;4.60;;;5.70;99.90;;;;;;5003800;28;20049;-71
2023/02/02 08:28:41;;;;;;;37.20;4.65;;;5.70;99.90;;;;;;5003107;28;20563;-71
2023/02/02 08:31:12;;;;;;;32.92;4.68;;;5.70;99.90;;;;;;4999819;28;20379;-72
2023/02/02 08:33:38;;;;;;;35.25;4.43;;;5.60;99.90;;;;;;5002240;28;20403;-72
2023/02/02 08:36:07;;;;;;;31.27;3.72;;;5.60;99.90;;;;;;4996783;28;20022;-73
2023/02/02 08:38:32;;;;;;;35.72;4.13;;;5.60;99.90;;;;;;4998359;28;20030;-71
2023/02/02 08:41:04;;;;;;;25.92;4.22;;;5.60;99.90;;;;;;4998703;28;20142;-71
2023/02/02 08:43:30;;;;;;;26.40;4.70;;;5.60;99.90;;;;;;4999148;28;20412;-71
2023/02/02 08:45:55;;;;;;;34.30;4.57;;;5.70;99.90;;;;;;5002238;28;20038;-72
2023/02/02 08:48:21;;;;;;;23.90;3.55;;;5.70;99.90;;;;;;5003292;28;20098;-70
2023/02/02 08:50:57;;;;;;;36.00;5.28;;;5.80;99.90;;;;;;5002986;28;20033;-71
2023/02/02 08:53:24;;;;;;;34.88;4.65;;;6.00;99.90;;;;;;5003802;28;20038;-71
2023/02/02 08:56:02;;;;;;;26.80;4.18;;;6.00;99.90;;;;;;5002071;28;20430;-70
2023/02/02 08:58:29;;;;;;;39.55;3.90;;;6.00;99.90;;;;;;5002373;28;20033;-70
2023/02/02 09:00:54;;;;;;;35.83;4.63;;;6.00;99.90;;;;;;5003911;28;20116;-72
2023/02/02 09:03:20;;;;;;;30.70;3.92;;;6.20;99.90;;;;;;4994452;28;20030;-71
2023/02/02 09:05:46;;;;;;;33.33;4.25;;;6.30;99.90;;;;;;4993029;28;20042;-73
2023/02/02 09:08:11;;;;;;;37.40;4.50;;;6.30;99.90;;;;;;4990750;28;20147;-71
2023/02/02 09:10:37;;;;;;;32.75;3.95;;;6.40;99.90;;;;;;4993030;28;20360;-73
2023/02/02 09:13:03;;;;;;;30.58;4.90;;;6.40;99.90;;;;;;4997787;28;20065;-71
2023/02/02 09:15:29;;;;;;;31.50;5.13;;;6.60;99.90;;;;;;4999790;28;20030;-72
2023/02/02 09:17:55;;;;;;;30.52;4.57;;;6.80;99.90;;;;;;4994412;28;20038;-70
2023/02/02 09:20:21;;;;;;;37.95;4.47;;;6.90;99.90;;;;;;4987000;28;20026;-72
2023/02/02 09:22:47;;;;;;;27.83;3.88;;;7.10;99.90;;;;;;5001378;28;20030;-69
2023/02/02 09:25:13;;;;;;;31.63;4.00;;;7.10;99.90;;;;;;4995686;28;20153;-73
2023/02/02 09:27:40;;;;;;;32.47;3.83;;;7.20;99.90;;;;;;5001420;28;20057;-74
2023/02/02 09:30:07;;;;;;;24.30;3.70;;;7.10;99.90;;;;;;5017129;28;20037;-72
2023/02/02 09:32:33;;;;;;;27.58;3.78;;;7.10;99.90;;;;;;5004561;28;20054;-70
2023/02/02 09:34:59;;;;;;;27.90;4.05;;;7.10;99.90;;;;;;5000672;28;20031;-72
2023/02/02 09:37:27;;;;;;;30.90;4.35;;;7.10;99.90;;;;;;5002195;28;20067;-71
2023/02/02 09:39:53;;;;;;;39.10;4.22;;;7.10;99.90;;;;;;5001162;28;20399;-70
2023/02/02 09:42:28;;;;;;;23.15;4.35;;;7.10;99.90;;;;;;5014684;28;20026;-70
2023/02/02 09:45:06;;;;;;;38.80;4.38;;;7.20;99.90;;;;;;5002667;28;20034;-73
2023/02/02 09:47:40;;;;;;;36.30;4.32;;;7.20;99.90;;;;;;5002404;28;20054;-71
2023/02/02 09:50:14;;;;;;;;;;;7.30;99.90;;;;;;5000678;28;20067;-72
2023/02/02 09:52:53;;;;;;;30.55;4.30;;;7.50;99.90;;;;;;5002954;28;19956;-71
2023/02/02 09:55:27;;;;;;;22.73;4.07;;;7.70;99.90;;;;;;4998090;28;20030;-72
2023/02/02 09:58:02;;;;;;;25.42;3.70;;;7.90;99.90;;;;;;4989928;28;20047;-71
2023/02/02 10:00:30;;;;;;;30.88;4.47;;;8.20;99.90;;;;;;4995362;28;20026;-72
2023/02/02 10:03:34;;;;;;;21.10;3.33;;;8.40;99.90;;;;;;5004800;28;20054;-71
2023/02/02 10:06:24;;;;;;;26.97;4.60;;;8.50;99.90;;;;;;4994231;28;20069;-70
2023/02/02 10:09:01;;;;;;;26.65;3.22;;;8.50;99.90;;;;;;5000485;28;20035;-69
2023/02/02 10:11:43;;;;;;;29.92;3.53;;;8.70;99.90;;;;;;4994921;28;20064;-70
2023/02/02 10:14:20;;;;;;;27.25;4.45;;;8.90;99.90;;;;;;5004894;28;20037;-72
2023/02/02 10:16:48;;;;;;;25.65;5.30;;;9.10;99.90;;;;;;5005510;28;20031;-71
2023/02/02 10:19:14;;;;;;;25.90;4.03;;;9.40;99.90;;;;;;5006440;28;20620;-70
2023/02/02 10:21:45;;;;;;;28.05;4.45;;;9.60;99.90;;;;;;5000883;28;20030;-70
2023/02/02 10:24:23;;;;;;;26.88;4.53;;;9.90;99.90;;;;;;4999315;28;20034;-69
2023/02/02 10:27:02;;;;;;;24.50;4.10;;;10.10;99.90;;;;;;4997194;28;20069;-71
2023/02/02 10:29:55;;;;;;;27.75;4.00;;;10.10;99.90;;;;;;4999748;28;20115;-70
2023/02/02 10:32:34;;;;;;;29.60;3.65;;;10.30;99.90;;;;;;4999360;28;20388;-74
2023/02/02 10:35:14;;;;;;;25.88;3.97;;;10.20;99.90;;;;;;4994736;28;20034;-69
2023/02/02 10:37:46;;;;;;;24.90;3.50;;;10.20;99.90;;;;;;4996231;28;20034;-71
2023/02/02 10:40:23;;;;;;;22.30;4.07;;;10.30;99.90;;;;;;5002990;28;20031;-70
2023/02/02 10:43:45;;;;;;;27.23;3.85;;;10.30;99.90;;;;;;4999725;28;20034;-73
2023/02/02 10:46:22;;;;;;;27.35;3.97;;;10.30;99.90;;;;;;5005393;28;20046;-72
2023/02/02 10:48:49;;;;;;;21.38;3.20;;;10.30;99.90;;;;;;4999807;28;20042;-70
2023/02/02 10:51:23;;;;;;;22.55;4.05;;;10.30;99.90;;;;;;5003206;28;20037;-73
2023/02/02 10:53:52;;;;;;;37.45;4.55;;;10.50;99.90;;;;;;4999316;28;20031;-69
2023/02/02 10:56:33;;;;;;;38.65;9.15;;;10.60;99.90;;;;;;5001674;28;20042;-75
2023/02/02 10:59:02;;;;;;;36.00;5.40;;;10.80;99.90;;;;;;5005398;28;20027;-72
2023/02/02 11:01:28;;;;;;;26.42;5.55;;;10.70;99.90;;;;;;4995824;28;20030;-71
2023/02/02 11:06:51;;;;;;;38.88;5.32;;;10.70;99.90;;;;;;5005655;28;20404;-71
2023/02/02 11:09:30;;;;;;;27.70;4.88;;;10.80;99.90;;;;;;5002681;28;20071;-71
2023/02/02 11:12:24;;;;;;;32.78;4.55;;;10.60;99.90;;;;;;5002580;28;20034;-69
2023/02/02 11:15:07;;;;;;;28.23;4.20;;;10.40;99.90;;;;;;5005093;28;20042;-70
2023/02/02 11:17:34;;;;;;;30.55;3.55;;;10.40;99.90;;;;;;5004494;28;20034;-70
2023/02/02 11:19:59;;;;;;;32.10;3.72;;;10.60;99.90;;;;;;4991440;28;20182;-71
2023/02/02 11:22:35;;;;;;;25.40;4.38;;;11.10;99.90;;;;;;5001490;28;20030;-69
2023/02/02 11:25:31;;;;;;;40.53;7.35;;;11.30;99.90;;;;;;5003129;28;20107;-70
2023/02/02 11:27:57;;;;;;;34.00;6.15;;;11.30;99.90;;;;;;5003896;28;20037;-70
2023/02/02 11:30:29;;;;;;;19.23;3.13;;;11.30;99.90;;;;;;4992428;28;20030;-70
2023/02/02 11:32:55;;;;;;;29.73;3.65;;;10.90;99.90;;;;;;4988669;28;20070;-70
2023/02/02 11:35:26;;;;;;;17.02;3.33;;;10.30;99.90;;;;;;5003561;28;20023;-70
2023/02/02 11:38:14;;;;;;;22.25;3.72;;;10.00;99.90;;;;;;5002021;28;20034;-71
2023/02/02 11:40:45;;;;;;;26.25;3.20;;;9.70;99.90;;;;;;4997915;28;20057;-71
2023/02/02 11:43:40;;;;;;;20.58;4.20;;;9.40;99.90;;;;;;5003903;28;20088;-74
2023/02/02 11:46:13;;;;;;;;;;;9.60;99.90;;;;;;4998925;28;20057;-72
2023/02/02 11:48:46;;;;;;;19.48;3.35;;;9.60;99.90;;;;;;5000834;28;19964;-73
2023/02/02 11:51:23;;;;;;;23.88;3.42;;;9.60;99.90;;;;;;4995366;28;20038;-69
2023/02/02 11:53:59;;;;;;;20.02;3.72;;;9.50;99.90;;;;;;4998340;28;20095;-71
2023/02/02 11:56:25;;;;;;;31.33;3.85;;;9.40;99.90;;;;;;5001149;28;20046;-70
2023/02/02 11:59:02;;;;;;;17.85;3.67;;;9.60;99.90;;;;;;4997733;28;20062;-72
2023/02/02 12:01:31;;;;;;;22.20;3.75;;;9.80;99.90;;;;;;4994977;28;20093;-70
2023/02/02 12:04:16;;;;;;;25.58;3.50;;;10.30;99.90;;;;;;4990787;28;20045;-72
2023/02/02 12:06:42;;;;;;;24.15;3.40;;;11.00;99.90;;;;;;4991630;28;20413;-73
2023/02/02 12:09:18;;;;;;;27.30;3.55;;;11.40;99.90;;;;;;5000733;28;20042;-72
2023/02/02 12:12:11;;;;;;;18.23;3.28;;;11.80;99.90;;;;;;4982662;28;20049;-71
2023/02/02 12:14:55;;;;;;;22.70;3.40;;;12.20;99.90;;;;;;4998403;28;20026;-71
2023/02/02 12:17:43;;;;;;;21.98;3.65;;;12.50;99.90;;;;;;5002193;28;20026;-69
2023/02/02 12:20:51;;;;;;;26.23;3.40;;;12.30;99.90;;;;;;5001527;28;20050;-71
2023/02/02 12:23:38;;;;;;;21.80;3.33;;;12.30;99.90;;;;;;4988136;28;20038;-72
2023/02/02 12:26:21;;;;;;;24.58;3.78;;;12.30;99.90;;;;;;4988383;28;20141;-72
2023/02/02 12:29:02;;;;;;;26.98;3.75;;;12.40;99.90;;;;;;5000621;28;20037;-69
2023/02/02 12:31:40;;;;;;;26.52;4.18;;;12.40;99.90;;;;;;4993459;28;20026;-69
2023/02/02 12:34:41;;;;;;;32.40;3.90;;;12.10;99.90;;;;;;5003654;28;20038;-70
2023/02/02 12:37:45;;;;;;;26.58;3.72;;;11.70;99.90;;;;;;5001134;28;20057;-71
2023/02/02 12:40:44;;;;;;;28.83;4.47;;;11.40;99.90;;;;;;5000339;28;20040;-72
2023/02/02 12:43:28;;;;;;;32.78;4.07;;;11.40;99.90;;;;;;5003637;28;20026;-69
2023/02/02 12:46:23;;;;;;;28.98;3.83;;;11.40;99.90;;;;;;5004468;28;20085;-70
2023/02/02 12:49:07;;;;;;;25.83;5.78;;;11.30;99.90;;;;;;5004611;28;20034;-72
2023/02/02 12:51:50;;;;;;;32.33;6.53;;;11.40;99.90;;;;;;5004581;28;20042;-72
2023/02/02 12:54:42;;;;;;;28.83;3.78;;;11.40;99.90;;;;;;5004547;28;20037;-70
2023/02/02 12:57:31;;;;;;;25.33;4.00;;;11.10;99.90;;;;;;5004121;28;20106;-71
2023/02/02 13:00:16;;;;;;;32.95;4.47;;;11.20;99.90;;;;;;5003946;28;20041;-72
2023/02/02 13:03:02;;;;;;;27.42;4.28;;;11.20;99.90;;;;;;5004516;28;20026;-71
2023/02/02 13:05:47;;;;;;;30.13;4.82;;;11.10;99.90;;;;;;5002791;28;20133;-72
2023/02/02 13:08:19;;;;;;;;;;;10.90;99.90;;;;;;5003330;28;20026;-71
2023/02/02 13:10:50;;;;;;;32.80;4.22;;;10.60;99.90;;;;;;5002725;28;19909;-69
2023/02/02 13:13:22;;;;;;;28.20;3.85;;;10.30;99.90;;;;;;5004309;28;20026;-70
2023/02/02 13:15:55;;;;;;;26.10;4.18;;;10.50;99.90;;;;;;5004084;28;20022;-69
2023/02/02 13:18:44;;;;;;;37.27;3.97;;;10.70;99.90;;;;;;5002608;28;20037;-72
2023/02/02 13:21:16;;;;;;;31.08;3.80;;;11.00;99.90;;;;;;5004360;28;20026;-73